• Join FlightAware (Why Join?)
  • Login
  • US Flag 
12:24PM EDT


 

Airport Tracker/Info


-or-


 

Live Flight TrackerFlight Track Log ✈ SWA3675 ✈ 20-Jun-2013 ✈ KPVD - KBWI

Flight Track Log - Related Links

Times and Time Zones

All times are in EDT time to prevent confusion due to time zone crossing. See the SWA3675 flight status page for this flight to view local times or setup timezone preferences in your user account.

Time Position Orientation Groundspeed Altitude Reporting Facility
EDT Latitude Longitude Course Direction KTS MPH feet Rate Location/Type
06:23PM 41.7061 -71.4419 262° West 147 169 900  Level Boston Center
06:23PM 41.7003 -71.4975 262° West 190 219 3,300 2,940 Climbing Boston Center
06:24PM 41.7300 -71.5667 300° West 263 303 6,400 3,540 Climbing Boston Center
06:25PM 41.7847 -71.6328 318° Northwest 258 297 10,300 3,120 Climbing Boston Center
06:26PM 41.8436 -71.7044 318° Northwest 291 335 12,700 3,060 Climbing Boston Center
06:27PM 41.9214 -71.8011 317° Northwest 330 380 16,500 3,420 Climbing Boston Center
06:28PM 41.9533 -71.9208 290° West 341 392 19,600 2,940 Climbing Boston Center
06:29PM 41.9517 -72.0550 269° West 342 394 22,400 2,700 Climbing Boston Center
06:30PM 41.9500 -72.1972 269° West 364 419 25,000 2,400 Climbing Boston Center
06:31PM 41.9022 -72.3258 244° Southwest 378 435 27,300 2,220 Climbing Boston Center
06:32PM 41.8419 -72.4567 238° Southwest 383 441 29,500 2,280 Climbing Boston Center
06:33PM 41.7792 -72.5847 237° Southwest 403 464 31,900 2,160 Climbing Boston Center
06:34PM 41.7164 -72.7097 236° Southwest 408 470 33,900 1,020 Climbing Boston Center
06:35PM 41.6536 -72.8347 236° Southwest 413 475 34,000  Climbing Boston Center
06:36PM 41.6031 -72.9369 237° Southwest 413 475 34,000  Level Boston Center
06:37PM 41.5378 -73.0725 237° Southwest 413 475 34,000  Level Boston Center
06:38PM 41.4789 -73.1908 236° Southwest 408 470 34,000  Level Boston Center
06:39PM 41.4175 -73.3147 237° Southwest 408 470 34,000  Level Boston Center
06:41PM 41.3418 -73.4167 236° Southwest  Level FlightAware Approximate
06:41PM 41.2922 -73.5672 236° Southwest 408 470 34,000  Level Boston Center
06:44PM 41.1214 -73.8533 232° Southwest 424 488 34,000  Level New York Center
06:45PM 41.0536 -73.9739 233° Southwest 424 488 34,000 -900 Level New York Center
06:46PM 40.9794 -74.0942 231° Southwest 424 488 32,300 -2,160 Descending New York Center
06:47PM 40.9139 -74.1981 230° Southwest 424 488 29,700 -2,400 Descending New York Center
06:48PM 40.8461 -74.3097 231° Southwest 412 474 27,500 -1,860 Descending New York Center
06:49PM 40.7758 -74.4239 231° Southwest 406 467 26,000 -780 Descending New York Center
06:50PM 40.7100 -74.5325 231° Southwest 401 461 26,000  Level New York Center
06:51PM 40.6439 -74.6439 232° Southwest 401 461 26,000  Level New York Center
06:52PM 40.5756 -74.7547 231° Southwest 396 456 26,000 -120 Level New York Center
06:53PM 40.5033 -74.8542 226° Southwest 391 450 25,800 -660 Descending New York Center
06:54PM 40.4311 -74.9564 227° Southwest 386 444 24,800 -1,020 Descending New York Center
06:55PM 40.3608 -75.0583 228° Southwest 386 444 23,800 -1,020 Descending New York Center
06:56PM 40.2883 -75.1572 226° Southwest 381 438 22,800 -1,020 Descending New York Center
06:57PM 40.2222 -75.2536 228° Southwest 375 432 21,800 -1,020 Descending New York Center
06:58PM 40.1497 -75.3494 225° Southwest 375 432 20,800 -1,020 Descending New York Center
06:59PM 40.0833 -75.4481 229° Southwest 370 426 19,800 -1,020 Descending New York Center
07:00PM 40.0106 -75.5461 226° Southwest 375 432 18,800 -900 Descending New York Center
07:01PM 39.9356 -75.6467 226° Southwest 370 426 18,000 -420 Descending New York Center
07:02PM 39.8839 -75.7378 234° Southwest 355 409 18,000 -420 Level New York Center
07:03PM 39.8228 -75.8525 235° Southwest 345 397 17,200 -1,680 Descending New York Center
07:05PM 39.7000 -76.1000 237° Southwest 330 380 12,400 -1,560 Descending Potomac TRACON
07:06PM 39.6500 -76.1833 232° Southwest 303 349 12,000 -240 Descending Potomac TRACON
07:07PM 39.6000 -76.2833 237° Southwest 292 336 12,000 -540 Level Potomac TRACON
07:08PM 39.5500 -76.3667 232° Southwest 293 337 11,000 -540 Descending Potomac TRACON
07:09PM 39.5167 -76.4667 247° West 289 333 11,000 -180 Level Potomac TRACON
07:10PM 39.4833 -76.5500 243° Southwest 292 336 10,700 -900 Descending Potomac TRACON
07:11PM 39.4833 -76.6500 270° West 286 329 9,200 -1,620 Descending Potomac TRACON
07:12PM 39.4667 -76.7333 256° West 283 326 7,500 -1,620 Descending Potomac TRACON
07:13PM 39.4167 -76.8000 226° Southwest 282 325 6,100 -1,380 Descending Potomac TRACON
07:14PM 39.3500 -76.8667 218° Southwest 274 315 4,800 -1,200 Descending Potomac TRACON
07:15PM 39.2833 -76.9000 201° Southwest 256 295 3,700 -1,140 Descending Potomac TRACON
07:16PM 39.2167 -76.8833 169° South 248 285 2,700 -840 Descending Potomac TRACON
07:17PM 39.1833 -76.8167 123° Southeast 211 243 2,000 -720 Descending Potomac TRACON
07:18PM 39.1833 -76.7667 90° East 169 194 1,300 -780 Descending Potomac TRACON
07:19PM 39.1833 -76.7167 90° East 139 160 500 -780 Descending Potomac TRACON
07:21PM 39.1754 -76.6683 102° East  Level Estimated
07:28PM 39.1754 -76.6683 293° West  Level Estimated
07:29PM 39.1754 -76.6683 293° West  Level Estimated
07:30PM 39.1754 -76.6683 293° West  Level Estimated
07:31PM 39.1754 -76.6683 293° West  Level Estimated